createdAt,value
2018-04-06T00:00:57.804Z,0
2018-04-06T00:01:57.012Z,0
2018-04-06T00:02:57.771Z,0
2018-04-06T00:03:57.752Z,0
2018-04-06T00:04:57.221Z,0
2018-04-06T00:05:57.463Z,0
2018-04-06T00:06:57.708Z,0
2018-04-06T00:07:57.429Z,0
2018-04-06T00:08:57.159Z,0
2018-04-06T00:09:57.137Z,0
2018-04-06T00:10:57.380Z,0
2018-04-06T00:11:57.624Z,0
2018-04-06T00:12:57.613Z,0
2018-04-06T00:13:57.080Z,0
2018-04-06T00:14:57.320Z,0
2018-04-06T00:15:57.297Z,0
2018-04-06T00:16:57.282Z,0
2018-04-06T00:17:57.540Z,0
2018-04-06T00:18:56.989Z,0
2018-04-06T00:19:57.492Z,0
2018-04-06T00:20:56.966Z,0
2018-04-06T00:21:57.204Z,0
2018-04-06T00:22:56.933Z,0
2018-04-06T00:23:57.424Z,0
2018-04-06T00:24:57.153Z,0
2018-04-06T00:25:57.134Z,0
2018-04-06T00:26:57.116Z,0
2018-04-06T00:27:57.096Z,0
2018-04-06T00:28:57.085Z,0
2018-04-06T00:29:57.066Z,0
2018-04-06T00:30:56.794Z,0
2018-04-06T00:31:57.292Z,0
2018-04-06T00:32:57.274Z,0
2018-04-06T00:33:57.260Z,0
2018-04-06T00:34:57.243Z,0
2018-04-06T00:35:56.966Z,0
2018-04-06T00:36:56.952Z,0
2018-04-06T00:37:56.677Z,0
2018-04-06T00:38:56.400Z,0
2018-04-06T00:39:57.161Z,0
2018-04-06T00:40:56.368Z,0
2018-04-06T00:41:57.000Z,0
2018-04-06T00:42:56.848Z,0
2018-04-06T00:43:56.832Z,0
2018-04-06T00:44:57.080Z,0
2018-04-06T00:45:57.054Z,0
2018-04-06T00:46:56.782Z,0
2018-04-06T00:47:56.763Z,0
2018-04-06T00:48:56.495Z,0
2018-04-06T00:49:56.729Z,0
2018-04-06T00:50:56.456Z,0
2018-04-06T00:51:56.960Z,0
2018-04-06T00:52:56.942Z,0
2018-04-06T00:53:56.668Z,0
2018-04-06T00:54:56.645Z,0
2018-04-06T00:55:56.633Z,0
2018-04-06T00:56:56.358Z,0
2018-04-06T00:57:56.341Z,0
2018-04-06T00:58:56.580Z,0
2018-04-06T00:59:56.611Z,0
2018-04-06T01:00:56.547Z,0
2018-04-06T01:01:56.790Z,0
2018-04-06T01:02:56.512Z,0
2018-04-06T01:03:56.752Z,0
2018-04-06T01:04:56.480Z,0
2018-04-06T01:05:56.718Z,0
2018-04-06T01:06:56.444Z,0
2018-04-06T01:07:56.682Z,0
2018-04-06T01:08:56.527Z,0
2018-04-06T01:09:56.652Z,0
2018-04-06T01:10:56.645Z,0
2018-04-06T01:11:56.097Z,0
2018-04-06T01:12:56.344Z,0
2018-04-06T01:13:56.062Z,0
2018-04-06T01:14:56.308Z,0
2018-04-06T01:15:56.544Z,0
2018-04-06T01:16:56.275Z,0
2018-04-06T01:17:56.261Z,0
2018-04-06T01:18:56.492Z,0
2018-04-06T01:19:55.958Z,0
2018-04-06T01:20:56.200Z,0
2018-04-06T01:21:56.449Z,0
2018-04-06T01:22:56.428Z,0
2018-04-06T01:23:56.147Z,0
2018-04-06T01:24:56.391Z,0
2018-04-06T01:25:56.374Z,0
2018-04-06T01:26:56.354Z,0
2018-04-06T01:27:56.336Z,0
2018-04-06T01:28:56.062Z,0
2018-04-06T01:29:55.795Z,0
2018-04-06T01:30:55.769Z,0
2018-04-06T01:31:56.274Z,0
2018-04-06T01:32:56.249Z,0
2018-04-06T01:33:55.981Z,0
2018-04-06T01:34:55.701Z,0
2018-04-06T01:35:56.198Z,0
2018-04-06T01:36:55.975Z,0
2018-04-06T01:37:55.387Z,0
2018-04-06T01:38:55.888Z,0
2018-04-06T01:39:55.614Z,0
2018-04-06T01:40:55.853Z,0
2018-04-06T01:41:56.096Z,0
2018-04-06T01:42:55.829Z,0
2018-04-06T01:43:56.059Z,0
2018-04-06T01:44:55.785Z,0
2018-04-06T01:45:55.509Z,0
2018-04-06T01:46:56.011Z,0
2018-04-06T01:47:55.727Z,0
2018-04-06T01:48:55.725Z,0
2018-04-06T01:49:55.699Z,0
2018-04-06T01:50:55.420Z,0
2018-04-06T01:51:55.405Z,0
2018-04-06T01:52:55.724Z,0
2018-04-06T01:53:55.373Z,0
2018-04-06T01:54:55.871Z,0
2018-04-06T01:55:55.599Z,0
2018-04-06T01:56:55.320Z,0
2018-04-06T01:57:55.558Z,0
2018-04-06T01:58:55.793Z,0
2018-04-06T01:59:55.876Z,0
2018-04-06T02:00:55.503Z,0
2018-04-06T02:01:55.756Z,0
2018-04-06T02:02:55.222Z,0
2018-04-06T02:03:55.453Z,0
2018-04-06T02:04:54.922Z,0
2018-04-06T02:05:55.168Z,0
2018-04-06T02:06:55.403Z,0
2018-04-06T02:07:55.132Z,0
2018-04-06T02:08:55.368Z,0
2018-04-06T02:09:55.351Z,0
2018-04-06T02:10:55.599Z,0
2018-04-06T02:11:55.319Z,0
2018-04-06T02:12:55.040Z,0
2018-04-06T02:13:55.285Z,0
2018-04-06T02:14:55.521Z,0
2018-04-06T02:15:55.257Z,0
2018-04-06T02:16:54.973Z,0
2018-04-06T02:17:55.475Z,0
2018-04-06T02:18:55.455Z,0
2018-04-06T02:19:55.187Z,0
2018-04-06T02:20:54.908Z,0
2018-04-06T02:21:55.405Z,0
2018-04-06T02:22:55.387Z,0
2018-04-06T02:23:55.373Z,0
2018-04-06T02:24:55.264Z,0
2018-04-06T02:25:55.084Z,0
2018-04-06T02:26:55.068Z,0
2018-04-06T02:27:54.785Z,0
2018-04-06T02:28:55.028Z,0
2018-04-06T02:29:55.270Z,0
2018-04-06T02:30:55.317Z,0
2018-04-06T02:31:55.252Z,0
2018-04-06T02:32:54.981Z,0
2018-04-06T02:33:55.211Z,0
2018-04-06T02:34:54.673Z,0
2018-04-06T02:35:54.918Z,0
2018-04-06T02:36:54.921Z,0
2018-04-06T02:37:55.137Z,0
2018-04-06T02:38:54.866Z,0
2018-04-06T02:39:54.842Z,0
2018-04-06T02:40:54.565Z,0
2018-04-06T02:41:54.809Z,0
2018-04-06T02:42:54.789Z,0
2018-04-06T02:43:55.032Z,0
2018-04-06T02:44:55.025Z,0
2018-04-06T02:45:54.739Z,0
2018-04-06T02:46:54.721Z,0
2018-04-06T02:47:54.959Z,0
2018-04-06T02:48:54.995Z,0
2018-04-06T02:49:54.665Z,0
2018-04-06T02:50:54.648Z,0
2018-04-06T02:51:54.902Z,0
2018-04-06T02:52:54.624Z,0
2018-04-06T02:53:54.335Z,0
2018-04-06T02:54:54.840Z,0
2018-04-06T02:55:54.566Z,0
2018-04-06T02:56:54.550Z,0
2018-04-06T02:57:54.531Z,0
2018-04-06T02:58:54.507Z,0
2018-04-06T02:59:53.974Z,0
2018-04-06T03:00:54.475Z,0
2018-04-06T03:01:54.714Z,0
2018-04-06T03:02:54.754Z,0
2018-04-06T03:03:54.679Z,0
2018-04-06T03:04:54.404Z,0
2018-04-06T03:05:54.383Z,0
2018-04-06T03:06:53.851Z,0
2018-04-06T03:07:54.349Z,0
2018-04-06T03:08:54.585Z,0
2018-04-06T03:09:54.311Z,0
2018-04-06T03:10:54.035Z,0
2018-04-06T03:11:54.276Z,0
2018-04-06T03:12:54.002Z,0
2018-04-06T03:13:53.982Z,0
2018-04-06T03:14:54.609Z,0
2018-04-06T03:15:54.205Z,0
2018-04-06T03:16:54.191Z,0
2018-04-06T03:17:54.429Z,0
2018-04-06T03:18:53.891Z,0
2018-04-06T03:19:53.882Z,0
2018-04-06T03:20:54.381Z,0
2018-04-06T03:21:54.102Z,0
2018-04-06T03:22:53.824Z,0
2018-04-06T03:23:53.546Z,0
2018-04-06T03:24:53.785Z,0
2018-04-06T03:25:53.769Z,0
2018-04-06T03:26:54.320Z,0
2018-04-06T03:27:53.989Z,0
2018-04-06T03:28:53.712Z,0
2018-04-06T03:29:54.214Z,0
2018-04-06T03:30:53.702Z,0
2018-04-06T03:31:54.188Z,0
2018-04-06T03:32:53.898Z,0
2018-04-06T03:33:54.144Z,0
2018-04-06T03:34:54.127Z,0
2018-04-06T03:35:54.113Z,0
2018-04-06T03:36:54.086Z,0
2018-04-06T03:37:54.072Z,0
2018-04-06T03:38:54.099Z,0
2018-04-06T03:39:53.775Z,0
2018-04-06T03:40:53.758Z,0
2018-04-06T03:41:54.010Z,0
2018-04-06T03:42:53.460Z,0
2018-04-06T03:43:53.705Z,0
2018-04-06T03:44:53.428Z,0
2018-04-06T03:45:53.405Z,0
2018-04-06T03:46:53.647Z,0
2018-04-06T03:47:53.891Z,0
2018-04-06T03:48:53.872Z,0
2018-04-06T03:49:53.589Z,0
2018-04-06T03:50:53.574Z,0
2018-04-06T03:51:53.557Z,0
2018-04-06T03:52:53.548Z,0
2018-04-06T03:53:53.780Z,0
2018-04-06T03:54:53.763Z,0
2018-04-06T03:55:53.490Z,0
2018-04-06T03:56:53.731Z,0
2018-04-06T03:57:53.192Z,0
2018-04-06T03:58:53.183Z,0
2018-04-06T03:59:53.673Z,0
2018-04-06T04:00:53.397Z,0
2018-04-06T04:01:52.863Z,0
2018-04-06T04:02:53.098Z,0
2018-04-06T04:03:53.603Z,0
2018-04-06T04:04:53.324Z,0
2018-04-06T04:05:53.047Z,0
2018-04-06T04:06:53.541Z,4
2018-04-06T04:07:53.009Z,4
2018-04-06T04:08:52.990Z,0
2018-04-06T04:09:52.972Z,4
2018-04-06T04:10:53.474Z,4
2018-04-06T04:11:53.256Z,8
2018-04-06T04:12:53.442Z,8
2018-04-06T04:13:52.898Z,8
2018-04-06T04:14:53.143Z,12
2018-04-06T04:15:53.123Z,12
2018-04-06T04:16:53.359Z,12
2018-04-06T04:17:53.081Z,12
2018-04-06T04:18:52.805Z,16
2018-04-06T04:19:53.308Z,20
2018-04-06T04:20:53.301Z,24
2018-04-06T04:21:53.012Z,32
2018-04-06T04:22:52.993Z,32
2018-04-06T04:23:52.718Z,44
2018-04-06T04:24:53.213Z,48
2018-04-06T04:25:53.199Z,56
2018-04-06T04:26:52.916Z,60
2018-04-06T04:27:52.903Z,72
2018-04-06T04:28:52.883Z,84
2018-04-06T04:29:52.869Z,92
2018-04-06T04:30:53.104Z,100
2018-04-06T04:31:52.830Z,116
2018-04-06T04:32:53.068Z,128
2018-04-06T04:33:52.537Z,144
2018-04-06T04:34:52.768Z,160
2018-04-06T04:35:53.012Z,176
2018-04-06T04:36:52.732Z,192
2018-04-06T04:37:52.713Z,216
2018-04-06T04:38:52.955Z,232
2018-04-06T04:39:52.995Z,256
2018-04-06T04:40:52.659Z,276
2018-04-06T04:41:52.640Z,300
2018-04-06T04:42:52.622Z,328
2018-04-06T04:43:52.880Z,348
2018-04-06T04:44:52.585Z,376
2018-04-06T04:45:52.308Z,400
2018-04-06T04:46:52.946Z,428
2018-04-06T04:47:52.271Z,460
2018-04-06T04:48:52.251Z,488
2018-04-06T04:49:52.234Z,516
2018-04-06T04:50:52.776Z,540
2018-04-06T04:51:52.200Z,576
2018-04-06T04:52:52.699Z,604
2018-04-06T04:53:52.678Z,632
2018-04-06T04:54:52.402Z,660
2018-04-06T04:55:52.130Z,692
2018-04-06T04:56:52.360Z,720
2018-04-06T04:57:51.827Z,748
2018-04-06T04:58:52.320Z,776
2018-04-06T04:59:52.571Z,808
2018-04-06T05:00:52.539Z,836
2018-04-06T05:01:52.264Z,864
2018-04-06T05:02:52.501Z,888
2018-04-06T05:03:51.711Z,920
2018-04-06T05:04:52.468Z,944
2018-04-06T05:05:52.456Z,972
2018-04-06T05:06:51.915Z,1000
2018-04-06T05:07:52.410Z,1032
2018-04-06T05:08:51.880Z,1064
2018-04-06T05:09:52.383Z,1088
2018-04-06T05:10:52.100Z,1116
2018-04-06T05:11:52.076Z,1144
2018-04-06T05:12:52.062Z,1168
2018-04-06T05:13:52.044Z,1196
2018-04-06T05:14:52.025Z,1216
2018-04-06T05:15:52.012Z,1244
2018-04-06T05:16:51.985Z,1272
2018-04-06T05:17:51.971Z,1292
2018-04-06T05:18:51.958Z,1320
2018-04-06T05:19:51.935Z,1348
2018-04-06T05:20:52.170Z,1372
2018-04-06T05:21:51.375Z,1396
2018-04-06T05:22:52.131Z,1420
2018-04-06T05:23:51.602Z,1440
2018-04-06T05:24:51.843Z,1460
2018-04-06T05:25:51.823Z,1480
2018-04-06T05:26:51.545Z,1504
2018-04-06T05:27:52.045Z,1524
2018-04-06T05:28:51.769Z,1548
2018-04-06T05:29:52.012Z,1568
2018-04-06T05:30:51.469Z,1588
2018-04-06T05:31:51.448Z,1608
2018-04-06T05:32:51.690Z,1628
2018-04-06T05:33:51.931Z,1648
2018-04-06T05:34:51.915Z,1672
2018-04-06T05:35:51.896Z,1696
2018-04-06T05:36:51.360Z,1720
2018-04-06T05:37:51.600Z,1736
2018-04-06T05:38:51.763Z,1744
2018-04-06T05:39:51.820Z,1760
2018-04-06T05:40:51.545Z,1776
2018-04-06T05:41:51.786Z,1796
2018-04-06T05:42:51.512Z,1812
2018-04-06T05:43:51.239Z,1824
2018-04-06T05:44:51.729Z,1840
2018-04-06T05:45:51.708Z,1856
2018-04-06T05:46:51.693Z,1876
2018-04-06T05:47:51.426Z,1896
2018-04-06T05:48:51.669Z,1916
2018-04-06T05:49:51.378Z,1928
2018-04-06T05:50:51.624Z,1944
2018-04-06T05:51:51.085Z,1964
2018-04-06T05:52:51.591Z,1984
2018-04-06T05:53:51.567Z,2000
2018-04-06T05:54:51.326Z,2020
2018-04-06T05:55:51.521Z,2028
2018-04-06T05:56:51.251Z,2040
2018-04-06T05:57:50.980Z,2044
2018-04-06T05:58:51.480Z,2052
2018-04-06T05:59:51.193Z,2064
2018-04-06T06:00:51.177Z,2068
2018-04-06T06:01:51.173Z,2068
2018-04-06T06:02:51.405Z,2072
2018-04-06T06:03:50.861Z,2080
2018-04-06T06:04:51.365Z,2088
2018-04-06T06:05:51.087Z,2100
2018-04-06T06:06:51.327Z,2112
2018-04-06T06:07:51.076Z,2124
2018-04-06T06:08:50.775Z,2132
2018-04-06T06:09:51.125Z,2144
2018-04-06T06:10:50.992Z,2156
2018-04-06T06:11:50.992Z,2172
2018-04-06T06:12:50.961Z,2196
2018-04-06T06:13:50.684Z,2212
2018-04-06T06:14:51.182Z,2220
2018-04-06T06:15:51.170Z,2284
2018-04-06T06:16:50.888Z,2280
2018-04-06T06:17:51.237Z,2268
2018-04-06T06:18:51.113Z,2252
2018-04-06T06:19:50.834Z,2276
2018-04-06T06:20:50.817Z,2356
2018-04-06T06:21:50.801Z,2336
2018-04-06T06:22:50.526Z,2340
2018-04-06T06:23:50.513Z,2404
2018-04-06T06:24:50.494Z,2364
2018-04-06T06:25:51.002Z,2408
2018-04-06T06:26:50.709Z,2380
2018-04-06T06:27:50.694Z,2444
2018-04-06T06:28:50.678Z,2504
2018-04-06T06:29:50.660Z,2412
2018-04-06T06:30:50.907Z,2344
2018-04-06T06:31:50.878Z,2344
2018-04-06T06:32:50.871Z,2356
2018-04-06T06:33:50.592Z,2380
2018-04-06T06:34:50.574Z,2412
2018-04-06T06:35:50.554Z,2456
2018-04-06T06:36:50.072Z,2676
2018-04-06T06:37:50.260Z,3260
2018-04-06T06:38:50.238Z,3480
2018-04-06T06:39:50.480Z,4004
2018-04-06T06:40:50.723Z,4220
2018-04-06T06:41:50.191Z,4424
2018-04-06T06:42:49.919Z,4416
2018-04-06T06:43:50.420Z,4536
2018-04-06T06:44:50.654Z,5176
2018-04-06T06:45:50.383Z,5060
2018-04-06T06:46:50.363Z,5372
2018-04-06T06:47:50.352Z,6080
2018-04-06T06:48:50.342Z,6240
2018-04-06T06:49:50.323Z,6016
2018-04-06T06:50:50.044Z,6116
2018-04-06T06:51:50.284Z,6376
2018-04-06T06:52:50.009Z,6096
2018-04-06T06:53:49.994Z,6128
2018-04-06T06:54:50.516Z,6244
2018-04-06T06:55:50.481Z,5444
2018-04-06T06:56:50.467Z,4276
2018-04-06T06:57:50.200Z,4004
2018-04-06T06:58:49.926Z,3872
2018-04-06T06:59:49.903Z,3700
2018-04-06T07:00:50.152Z,3548
2018-04-06T07:01:49.882Z,3456
2018-04-06T07:02:49.870Z,3384
2018-04-06T07:03:49.855Z,3324
2018-04-06T07:04:50.359Z,3268
2018-04-06T07:05:50.091Z,3224
2018-04-06T07:06:50.346Z,3180
2018-04-06T07:07:49.827Z,3128
2018-04-06T07:08:50.309Z,3096
2018-04-06T07:09:50.304Z,3072
2018-04-06T07:10:49.778Z,3060
2018-04-06T07:11:50.017Z,3060
2018-04-06T07:12:50.009Z,3064
2018-04-06T07:13:49.734Z,3072
2018-04-06T07:14:49.471Z,3080
2018-04-06T07:15:49.713Z,3084
2018-04-06T07:16:50.229Z,3080
2018-04-06T07:17:50.215Z,3088
2018-04-06T07:18:50.193Z,3088
2018-04-06T07:19:49.666Z,3092
2018-04-06T07:20:49.654Z,3096
2018-04-06T07:21:49.899Z,3104
2018-04-06T07:22:49.903Z,3108
2018-04-06T07:23:49.620Z,3104
2018-04-06T07:24:49.608Z,3092
2018-04-06T07:25:49.867Z,3080
2018-04-06T07:26:50.105Z,3064
2018-04-06T07:27:49.842Z,3024
2018-04-06T07:28:49.568Z,2996
2018-04-06T07:29:49.827Z,2984
2018-04-06T07:30:49.539Z,2968
2018-04-06T07:31:49.789Z,2948
2018-04-06T07:32:49.511Z,2996
2018-04-06T07:33:49.763Z,3000
2018-04-06T07:34:49.770Z,3000
2018-04-06T07:35:49.482Z,2992
2018-04-06T07:36:49.467Z,2984
2018-04-06T07:37:49.474Z,2980
2018-04-06T07:38:49.703Z,2968
2018-04-06T07:39:49.173Z,2968
2018-04-06T07:40:49.675Z,2972
2018-04-06T07:41:49.662Z,2976
2018-04-06T07:42:49.654Z,2976
2018-04-06T07:43:49.662Z,2976
2018-04-06T07:44:49.631Z,2968
2018-04-06T07:45:49.615Z,2968
2018-04-06T07:46:49.344Z,2968
2018-04-06T07:47:49.847Z,2972
2018-04-06T07:48:49.833Z,2964
2018-04-06T07:49:49.303Z,2960
2018-04-06T07:50:50.011Z,2956
2018-04-06T07:51:49.019Z,2956
2018-04-06T07:52:49.524Z,2956
2018-04-06T07:53:49.770Z,2960
2018-04-06T07:54:49.756Z,2960
2018-04-06T07:55:49.750Z,2952
2018-04-06T07:56:49.470Z,2952
2018-04-06T07:57:49.456Z,2948
2018-04-06T07:58:49.441Z,2948
2018-04-06T07:59:49.447Z,2940
2018-04-06T08:00:49.419Z,2928
2018-04-06T08:01:49.144Z,2932
2018-04-06T08:02:49.391Z,2936
2018-04-06T08:03:49.639Z,2936
2018-04-06T08:04:49.361Z,2940
2018-04-06T08:05:49.345Z,2944
2018-04-06T08:06:49.600Z,2944
2018-04-06T08:07:49.579Z,2948
2018-04-06T08:08:49.047Z,2888
2018-04-06T08:09:49.291Z,2920
2018-04-06T08:10:49.289Z,2892
2018-04-06T08:11:49.017Z,2892
2018-04-06T08:12:49.519Z,2888
2018-04-06T08:13:49.507Z,2896
2018-04-06T08:14:49.236Z,2900
2018-04-06T08:15:49.269Z,2904
2018-04-06T08:16:49.207Z,2904
2018-04-06T08:17:48.934Z,2904
2018-04-06T08:18:49.174Z,2904
2018-04-06T08:19:48.904Z,2904
2018-04-06T08:20:49.413Z,2912
2018-04-06T08:21:48.880Z,2908
2018-04-06T08:22:49.386Z,2908
2018-04-06T08:23:48.856Z,2908
2018-04-06T08:24:49.102Z,2900
2018-04-06T08:25:49.339Z,2896
2018-04-06T08:26:48.817Z,2888
2018-04-06T08:27:49.061Z,2884
2018-04-06T08:28:49.051Z,2880
2018-04-06T08:29:49.296Z,2880
2018-04-06T08:30:49.021Z,2872
2018-04-06T08:31:49.005Z,2872
2018-04-06T08:32:48.993Z,2868
2018-04-06T08:33:48.981Z,2864
2018-04-06T08:34:48.974Z,2864
2018-04-06T08:35:48.965Z,2868
2018-04-06T08:36:48.941Z,2868
2018-04-06T08:37:49.183Z,2872
2018-04-06T08:38:48.916Z,2872
2018-04-06T08:39:48.905Z,2872
2018-04-06T08:40:49.145Z,2864
2018-04-06T08:41:49.138Z,2868
2018-04-06T08:42:48.610Z,2868
2018-04-06T08:43:49.114Z,2872
2018-04-06T08:44:48.835Z,2872
2018-04-06T08:45:48.565Z,2876
2018-04-06T08:46:48.809Z,2872
2018-04-06T08:47:48.801Z,2876
2018-04-06T08:48:49.043Z,2880
2018-04-06T08:49:49.034Z,2880
2018-04-06T08:50:48.759Z,2884
2018-04-06T08:51:48.489Z,2884
2018-04-06T08:52:48.732Z,2888
2018-04-06T08:53:48.979Z,2888
2018-04-06T08:54:48.859Z,2888
2018-04-06T08:55:48.438Z,2776
2018-04-06T08:56:48.943Z,2776
2018-04-06T08:57:48.973Z,2864
2018-04-06T08:58:48.914Z,2868
2018-04-06T08:59:48.651Z,2880
2018-04-06T09:00:48.894Z,2896
2018-04-06T09:01:48.616Z,2904
2018-04-06T09:02:48.604Z,2904
2018-04-06T09:03:48.850Z,2904
2018-04-06T09:04:48.355Z,2916
2018-04-06T09:05:48.049Z,2920
2018-04-06T09:06:48.814Z,2928
2018-04-06T09:07:48.820Z,2924
2018-04-06T09:08:48.530Z,2728
2018-04-06T09:09:48.796Z,2776
2018-04-06T09:10:48.248Z,2888
2018-04-06T09:11:48.752Z,2832
2018-04-06T09:12:48.934Z,2832
2018-04-06T09:13:48.743Z,2752
2018-04-06T09:14:48.722Z,2752
2018-04-06T09:15:48.445Z,2756
2018-04-06T09:16:48.690Z,2808
2018-04-06T09:17:47.901Z,2820
2018-04-06T09:18:48.408Z,2816
2018-04-06T09:19:48.424Z,2844
2018-04-06T09:20:48.649Z,2836
2018-04-06T09:21:48.110Z,2828
2018-04-06T09:22:48.098Z,2820
2018-04-06T09:23:48.598Z,2812
2018-04-06T09:24:48.598Z,2800
2018-04-06T09:25:48.584Z,2800
2018-04-06T09:26:48.053Z,2800
2018-04-06T09:27:48.308Z,2784
2018-04-06T09:28:48.287Z,2796
2018-04-06T09:29:48.526Z,2796
2018-04-06T09:30:47.999Z,2792
2018-04-06T09:31:48.242Z,2780
2018-04-06T09:32:47.971Z,2792
2018-04-06T09:33:47.965Z,2808
2018-04-06T09:34:48.216Z,2804
2018-04-06T09:35:47.934Z,2800
2018-04-06T09:36:47.669Z,2808
2018-04-06T09:37:48.174Z,2804
2018-04-06T09:38:48.425Z,2816
2018-04-06T09:39:48.405Z,2816
2018-04-06T09:40:47.877Z,2824
2018-04-06T09:41:47.867Z,2828
2018-04-06T09:42:47.860Z,2828
2018-04-06T09:43:47.845Z,2828
2018-04-06T09:44:48.352Z,2820
2018-04-06T09:45:47.821Z,2832
2018-04-06T09:46:48.063Z,2832
2018-04-06T09:47:48.312Z,2836
2018-04-06T09:48:48.300Z,2840
2018-04-06T09:49:47.770Z,2836
2018-04-06T09:50:47.768Z,2832
2018-04-06T09:51:47.746Z,2840
2018-04-06T09:52:48.114Z,2836
2018-04-06T09:53:48.247Z,2840
2018-04-06T09:54:47.716Z,2828
2018-04-06T09:55:48.039Z,2848
2018-04-06T09:56:48.297Z,2844
2018-04-06T09:57:48.009Z,2832
2018-04-06T09:58:47.668Z,2808
2018-04-06T09:59:47.940Z,2840
2018-04-06T10:00:47.899Z,2844
2018-04-06T10:01:47.957Z,2848
2018-04-06T10:02:47.959Z,2844
2018-04-06T10:03:47.875Z,2840
2018-04-06T10:04:47.857Z,2832
2018-04-06T10:05:47.589Z,2856
2018-04-06T10:06:47.577Z,2868
2018-04-06T10:07:47.829Z,2872
2018-04-06T10:08:48.362Z,2876
2018-04-06T10:09:47.315Z,2884
2018-04-06T10:10:47.796Z,2900
2018-04-06T10:11:47.785Z,2912
2018-04-06T10:12:47.772Z,2940
2018-04-06T10:13:48.022Z,2964
2018-04-06T10:14:47.752Z,2960
2018-04-06T10:15:47.224Z,2952
2018-04-06T10:16:47.728Z,2952
2018-04-06T10:17:47.719Z,2944
2018-04-06T10:18:47.461Z,2944
2018-04-06T10:19:47.446Z,2944
2018-04-06T10:20:47.938Z,2948
2018-04-06T10:21:47.695Z,2964
2018-04-06T10:22:47.712Z,2968
2018-04-06T10:23:47.399Z,2980
2018-04-06T10:24:47.393Z,2988
2018-04-06T10:25:47.685Z,2988
2018-04-06T10:26:47.629Z,2968
2018-04-06T10:27:47.629Z,2992
2018-04-06T10:28:47.602Z,2964
2018-04-06T10:29:47.854Z,2952
2018-04-06T10:30:47.577Z,2948
2018-04-06T10:31:47.572Z,2932
2018-04-06T10:32:47.819Z,2924
2018-04-06T10:33:47.291Z,2908
2018-04-06T10:34:47.798Z,2864
2018-04-06T10:35:47.533Z,2888
2018-04-06T10:36:47.524Z,2912
2018-04-06T10:37:47.772Z,2892
2018-04-06T10:38:47.493Z,2916
2018-04-06T10:39:46.970Z,2856
2018-04-06T10:40:47.734Z,2808
2018-04-06T10:41:47.720Z,2908
2018-04-06T10:42:47.451Z,2908
2018-04-06T10:43:47.445Z,2904
2018-04-06T10:44:47.170Z,2896
2018-04-06T10:45:47.425Z,2888
2018-04-06T10:46:47.458Z,2872
2018-04-06T10:47:47.404Z,2860
2018-04-06T10:48:47.397Z,2848
2018-04-06T10:49:47.382Z,2844
2018-04-06T10:50:47.114Z,2852
2018-04-06T10:51:47.624Z,2844
2018-04-06T10:52:47.349Z,2836
2018-04-06T10:53:46.822Z,2840
2018-04-06T10:54:47.583Z,2840
2018-04-06T10:55:47.324Z,2832
2018-04-06T10:56:47.562Z,2824
2018-04-06T10:57:47.553Z,2812
2018-04-06T10:58:47.613Z,2816
2018-04-06T10:59:47.278Z,2812
2018-04-06T11:00:47.266Z,2784
2018-04-06T11:01:46.740Z,2780
2018-04-06T11:02:47.245Z,2788
2018-04-06T11:03:47.491Z,2784
2018-04-06T11:04:47.228Z,2780
2018-04-06T11:05:47.467Z,2772
2018-04-06T11:06:47.461Z,2768
2018-04-06T11:07:46.932Z,2756
2018-04-06T11:08:47.182Z,2752
2018-04-06T11:09:47.432Z,2748
2018-04-06T11:10:47.161Z,2744
2018-04-06T11:11:47.151Z,2736
2018-04-06T11:12:47.140Z,2736
2018-04-06T11:13:47.132Z,2732
2018-04-06T11:14:46.863Z,2728
2018-04-06T11:15:47.375Z,2716
2018-04-06T11:16:47.361Z,2716
2018-04-06T11:17:47.361Z,2716
2018-04-06T11:18:47.347Z,2716
2018-04-06T11:19:47.071Z,2712
2018-04-06T11:20:46.803Z,2708
2018-04-06T11:21:46.796Z,2716
2018-04-06T11:22:47.300Z,2716
2018-04-06T11:23:47.033Z,2716
2018-04-06T11:24:47.282Z,2716
2018-04-06T11:25:46.755Z,2712
2018-04-06T11:26:46.743Z,2712
2018-04-06T11:27:46.998Z,2712
2018-04-06T11:28:46.733Z,2716
2018-04-06T11:29:46.977Z,2716
2018-04-06T11:30:47.232Z,2720
2018-04-06T11:31:47.213Z,2720
2018-04-06T11:32:46.947Z,2712
2018-04-06T11:33:47.200Z,2712
2018-04-06T11:34:46.929Z,2712
2018-04-06T11:35:47.180Z,2712
2018-04-06T11:36:47.171Z,2712
2018-04-06T11:37:47.157Z,2704
2018-04-06T11:38:47.154Z,2700
2018-04-06T11:39:46.885Z,2692
2018-04-06T11:40:46.617Z,2684
2018-04-06T11:41:47.130Z,2676
2018-04-06T11:42:46.854Z,2664
2018-04-06T11:43:47.104Z,2656
2018-04-06T11:44:46.581Z,2640
2018-04-06T11:45:47.086Z,2628
2018-04-06T11:46:47.069Z,2616
2018-04-06T11:47:46.804Z,2600
2018-04-06T11:48:47.058Z,2592
2018-04-06T11:49:46.788Z,2580
2018-04-06T11:50:46.776Z,2568
2018-04-06T11:51:47.025Z,2556
2018-04-06T11:52:47.017Z,2544
2018-04-06T11:53:46.782Z,2532
2018-04-06T11:54:46.999Z,2520
2018-04-06T11:55:46.733Z,2512
2018-04-06T11:56:46.997Z,2500
2018-04-06T11:57:46.972Z,2492
2018-04-06T11:58:46.702Z,2480
2018-04-06T11:59:47.037Z,2472
2018-04-06T12:00:46.184Z,2464
2018-04-06T12:01:46.680Z,2456
2018-04-06T12:02:46.680Z,2448
2018-04-06T12:03:46.397Z,2444
2018-04-06T12:04:46.646Z,2436
2018-04-06T12:05:46.638Z,2436
2018-04-06T12:06:46.373Z,2428
2018-04-06T12:07:46.873Z,2424
2018-04-06T12:08:46.613Z,2420
2018-04-06T12:09:46.347Z,2416
2018-04-06T12:10:46.855Z,2412
2018-04-06T12:11:46.590Z,2408
2018-04-06T12:12:46.575Z,2404
2018-04-06T12:13:46.049Z,2396
2018-04-06T12:14:46.296Z,2396
2018-04-06T12:15:46.291Z,2380
2018-04-06T12:16:46.534Z,2384
2018-04-06T12:17:46.784Z,2380
2018-04-06T12:18:46.524Z,2380
2018-04-06T12:19:46.512Z,2376
2018-04-06T12:20:46.506Z,2372
2018-04-06T12:21:46.751Z,2376
2018-04-06T12:22:46.227Z,2372
2018-04-06T12:23:46.847Z,2376
2018-04-06T12:24:46.726Z,2372
2018-04-06T12:25:46.469Z,2368
2018-04-06T12:26:46.186Z,2368
2018-04-06T12:27:46.186Z,2372
2018-04-06T12:28:46.425Z,2372
2018-04-06T12:29:46.422Z,2372
2018-04-06T12:30:46.407Z,2368
2018-04-06T12:31:46.397Z,2364
2018-04-06T12:32:46.648Z,2360
2018-04-06T12:33:46.643Z,2364
2018-04-06T12:34:46.113Z,2364
2018-04-06T12:35:46.100Z,2364
2018-04-06T12:36:46.357Z,2360
2018-04-06T12:37:46.352Z,2352
2018-04-06T12:38:46.333Z,2352
2018-04-06T12:39:46.070Z,2356
2018-04-06T12:40:46.575Z,2360
2018-04-06T12:41:46.318Z,2360
2018-04-06T12:42:46.038Z,2360
2018-04-06T12:43:46.293Z,2356
2018-04-06T12:44:46.025Z,2360
2018-04-06T12:45:46.532Z,2356
2018-04-06T12:46:46.008Z,2356
2018-04-06T12:47:46.252Z,2352
2018-04-06T12:48:46.517Z,2352
2018-04-06T12:49:46.240Z,2352
2018-04-06T12:50:45.711Z,2348
2018-04-06T12:51:46.473Z,2344
2018-04-06T12:52:46.463Z,2336
2018-04-06T12:53:46.202Z,2340
2018-04-06T12:54:46.191Z,2336
2018-04-06T12:55:46.435Z,2328
2018-04-06T12:56:46.188Z,2328
2018-04-06T12:57:46.157Z,2324
2018-04-06T12:58:45.896Z,2320
2018-04-06T12:59:46.402Z,2316
2018-04-06T13:00:46.134Z,2312
2018-04-06T13:01:46.392Z,2312
2018-04-06T13:02:46.108Z,2308
2018-04-06T13:03:45.856Z,2308
2018-04-06T13:04:46.358Z,2304
2018-04-06T13:05:46.089Z,2300
2018-04-06T13:06:46.084Z,2296
2018-04-06T13:07:46.365Z,2300
2018-04-06T13:08:45.803Z,2296
2018-04-06T13:09:46.050Z,2288
2018-04-06T13:10:45.783Z,2288
2018-04-06T13:11:45.779Z,2292
2018-04-06T13:12:46.028Z,2296
2018-04-06T13:13:46.284Z,2292
2018-04-06T13:14:45.747Z,2288
2018-04-06T13:15:45.483Z,2292
2018-04-06T13:16:45.472Z,2280
2018-04-06T13:17:45.718Z,2280
2018-04-06T13:18:45.970Z,2280
2018-04-06T13:19:45.969Z,2280
2018-04-06T13:20:46.211Z,2280
2018-04-06T13:21:45.686Z,2280
2018-04-06T13:22:45.939Z,2276
2018-04-06T13:23:46.190Z,2284
2018-04-06T13:24:45.913Z,2272
2018-04-06T13:25:46.167Z,2288
2018-04-06T13:26:45.899Z,2276
2018-04-06T13:27:46.149Z,2276
2018-04-06T13:28:45.623Z,2268
2018-04-06T13:29:45.880Z,2264
2018-04-06T13:30:45.866Z,2260
2018-04-06T13:31:46.114Z,2256
2018-04-06T13:32:45.846Z,2252
2018-04-06T13:33:45.835Z,2256
2018-04-06T13:34:45.827Z,2256
2018-04-06T13:35:45.559Z,2272
2018-04-06T13:36:45.552Z,2288
2018-04-06T13:37:46.059Z,2268
2018-04-06T13:38:45.532Z,2260
2018-04-06T13:39:46.043Z,2256
2018-04-06T13:40:45.769Z,2252
2018-04-06T13:41:45.761Z,2252
2018-04-06T13:42:45.750Z,2252
2018-04-06T13:43:45.490Z,2252
2018-04-06T13:44:45.219Z,2252
2018-04-06T13:45:45.723Z,2248
2018-04-06T13:46:45.727Z,2252